Archival Weather

Chicago O'Hare International

Chicago, Illinois (KORD)

Report from: Sunday, January 21, 2024 3:51 PM CST
Current time: Wednesday, April 24, 2024 1:30 PM CDT

Current weather – Weather history – Daily summaries
Weather forecast

Temperature-6.7°C (19.9°F)
Wind chill-13.0°C (8.6°F)
Dew point-13.9°C (7.0°F)
Winds 9 kts (4.6 m/s, 10.4 mph) South (180°)
Wind gusts 18 kts (9.3 m/s, 20.7 mph)
Visibility10 mi. (16.1 km)
Clouds Scattered clouds 22,000 ft. (6,706 m)
Ceiling: Broken clouds 25,000 ft. (7,620 m)
Altimeter30.42 in.Hg (1030 mB)
Relative humidity56 %
Density altitude-3,284 ft. (-1,001 m)
Sea-level pressure103.2 kPa (1032 mB, 30.47 in.Hg)
Remarks Automated weather observing station with precipitation discriminator
Flight conditions Visual Meteorological Conditions
Raw dataKORD 212151Z 18009G18KT 10SM SCT220 BKN250 M07/M14 A3042 RMK AO2 SLP317 T10671139
An error has occurred. This application may no longer respond until reloaded. Reload 🗙